Time;durP1;ratioP1;P1;durP2;ratioP2;P2;SDS_P1;SDS_P2;PMS_P1;PMS_P2;Temp;Humidity;BMP_temperature;BMP_pressure;BME280_temperature;BME280_humidity;BME280_pressure;Samples;Min_cycle;Max_cycle;Signal;HPM_P1;HPM_P2
2023/12/14 00:02:12;;;;;;;2.83;2.63;;;4.60;99.90;;;;;;4997404;28;20625;-65
2023/12/14 00:04:41;;;;;;;1.93;1.53;;;4.60;99.90;;;;;;4995577;28;20503;-66
2023/12/14 00:07:10;;;;;;;4.50;2.50;;;4.60;99.90;;;;;;5004284;28;20529;-65
2023/12/14 00:09:38;;;;;;;2.80;1.90;;;4.60;99.90;;;;;;5002967;28;20562;-65
2023/12/14 00:12:07;;;;;;;2.83;2.63;;;4.60;99.90;;;;;;5003616;28;20546;-64
2023/12/14 00:14:35;;;;;;;2.73;2.03;;;4.60;99.90;;;;;;4998526;28;20609;-64
2023/12/14 00:17:05;;;;;;;2.17;1.70;;;4.60;99.90;;;;;;4994500;28;20568;-66
2023/12/14 00:19:33;;;;;;;2.73;2.00;;;4.60;99.90;;;;;;5000838;28;20465;-66
2023/12/14 00:22:01;;;;;;;3.40;2.17;;;4.60;99.90;;;;;;4999707;28;20500;-66
2023/12/14 00:24:29;;;;;;;2.37;2.17;;;4.60;99.90;;;;;;4997317;28;20846;-66
2023/12/14 00:26:57;;;;;;;2.70;2.23;;;4.60;99.90;;;;;;4999856;28;20472;-65
2023/12/14 00:29:25;;;;;;;2.30;2.10;;;4.60;99.90;;;;;;4999290;28;20499;-66
2023/12/14 00:31:53;;;;;;;2.07;1.87;;;4.70;99.90;;;;;;5003835;28;20472;-63
2023/12/14 00:34:22;;;;;;;3.80;1.90;;;4.70;99.90;;;;;;5003371;28;20523;-66
2023/12/14 00:36:50;;;;;;;2.57;1.93;;;4.70;99.90;;;;;;5003956;28;20476;-65
2023/12/14 00:39:18;;;;;;;3.37;2.07;;;4.70;99.90;;;;;;5003539;28;20566;-66
2023/12/14 00:41:46;;;;;;;2.37;2.00;;;4.70;99.90;;;;;;4998630;28;21060;-66
2023/12/14 00:44:14;;;;;;;2.00;1.80;;;4.70;99.90;;;;;;4999517;28;20530;-65
2023/12/14 00:46:42;;;;;;;5.67;2.30;;;4.80;99.90;;;;;;4998699;28;20571;-63
2023/12/14 00:49:10;;;;;;;3.50;2.10;;;4.80;99.90;;;;;;5000766;28;20495;-65
2023/12/14 00:51:40;;;;;;;3.17;1.87;;;4.80;99.90;;;;;;5002826;28;20578;-66
2023/12/14 00:54:08;;;;;;;3.60;2.00;;;4.80;99.90;;;;;;4996558;28;20574;-65
2023/12/14 00:56:36;;;;;;;1.60;1.50;;;4.80;99.90;;;;;;5001032;28;20515;-64
2023/12/14 00:59:04;;;;;;;3.53;2.50;;;4.90;99.90;;;;;;5003341;28;20563;-64
2023/12/14 01:01:32;;;;;;;3.97;1.70;;;4.90;99.90;;;;;;5002176;28;20515;-65
2023/12/14 01:04:00;;;;;;;2.90;1.87;;;4.90;99.90;;;;;;4997918;28;21021;-66
2023/12/14 01:06:28;;;;;;;1.93;1.50;;;4.90;99.90;;;;;;4995174;28;20634;-65
2023/12/14 01:08:57;;;;;;;3.03;1.70;;;4.90;99.90;;;;;;4996188;28;20564;-65
2023/12/14 01:11:25;;;;;;;1.50;1.30;;;5.00;99.90;;;;;;5000438;28;20551;-65
2023/12/14 01:13:53;;;;;;;6.17;1.87;;;5.00;99.90;;;;;;4998444;28;20589;-65
2023/12/14 01:16:21;;;;;;;2.67;2.47;;;5.00;99.90;;;;;;4997595;28;21133;-63
2023/12/14 01:18:49;;;;;;;2.27;2.07;;;5.00;99.90;;;;;;5000852;28;21012;-66
2023/12/14 01:21:17;;;;;;;2.20;1.73;;;5.00;99.90;;;;;;5001828;28;20507;-64
2023/12/14 01:23:45;;;;;;;4.23;2.13;;;5.00;99.90;;;;;;5001885;28;21258;-64
2023/12/14 01:26:14;;;;;;;3.17;1.90;;;5.00;99.90;;;;;;5001514;28;20513;-65
2023/12/14 01:28:42;;;;;;;4.63;1.87;;;5.00;99.90;;;;;;5001376;28;20480;-65
2023/12/14 01:31:10;;;;;;;1.80;1.60;;;5.00;99.90;;;;;;5002252;28;20859;-65
2023/12/14 01:33:38;;;;;;;5.90;1.67;;;5.10;99.90;;;;;;5001625;28;20605;-65
2023/12/14 01:36:07;;;;;;;1.40;1.30;;;5.00;99.90;;;;;;5000724;28;20487;-64
2023/12/14 01:38:35;;;;;;;3.27;1.80;;;5.00;99.90;;;;;;4992574;28;20472;-65
2023/12/14 01:41:03;;;;;;;2.57;1.53;;;5.00;99.90;;;;;;5001977;28;21035;-65
2023/12/14 01:43:32;;;;;;;1.83;1.60;;;5.00;99.90;;;;;;5000239;28;21196;-65
2023/12/14 01:46:00;;;;;;;2.80;1.43;;;5.00;99.90;;;;;;4998917;28;20495;-65
2023/12/14 01:48:28;;;;;;;2.50;1.80;;;5.00;99.90;;;;;;4990984;28;20949;-65
2023/12/14 01:50:56;;;;;;;3.17;1.40;;;5.00;99.90;;;;;;4997431;28;20500;-65
2023/12/14 01:53:26;;;;;;;2.23;1.70;;;5.00;99.90;;;;;;4999311;28;20487;-66
2023/12/14 01:55:54;;;;;;;2.97;1.73;;;5.00;99.90;;;;;;4997909;28;20519;-64
2023/12/14 01:58:22;;;;;;;1.90;1.40;;;5.00;99.90;;;;;;5000681;28;20468;-65
2023/12/14 02:00:58;;;;;;;1.73;1.30;;;5.00;99.90;;;;;;4999914;28;20484;-64
2023/12/14 02:03:26;;;;;;;1.43;1.33;;;5.00;99.90;;;;;;4997911;28;20493;-65
2023/12/14 02:05:54;;;;;;;1.77;1.63;;;5.00;99.90;;;;;;5000481;28;20496;-65
2023/12/14 02:08:22;;;;;;;4.57;2.20;;;5.00;99.90;;;;;;5002207;28;20468;-66
2023/12/14 02:10:50;;;;;;;2.00;1.43;;;5.00;99.90;;;;;;4999067;28;20491;-64
2023/12/14 02:13:18;;;;;;;2.00;1.53;;;5.00;99.90;;;;;;5002188;28;20487;-66
2023/12/14 02:15:47;;;;;;;1.67;1.57;;;5.00;99.90;;;;;;4993505;28;20494;-65
2023/12/14 02:18:16;;;;;;;2.00;1.70;;;5.00;99.90;;;;;;5001459;28;20506;-65
2023/12/14 02:20:44;;;;;;;4.17;1.80;;;5.00;99.90;;;;;;5006751;28;20472;-63
2023/12/14 02:23:13;;;;;;;2.20;1.70;;;5.00;99.90;;;;;;5002913;28;20535;-66
2023/12/14 02:25:42;;;;;;;1.90;1.33;;;5.00;99.90;;;;;;5003830;28;20939;-66
2023/12/14 02:28:10;;;;;;;3.33;1.70;;;5.00;99.90;;;;;;5002014;28;20480;-65
2023/12/14 02:30:38;;;;;;;3.80;1.80;;;5.00;99.90;;;;;;5003318;28;20500;-66
2023/12/14 02:33:06;;;;;;;4.27;1.93;;;5.10;99.90;;;;;;5003715;28;20904;-64
2023/12/14 02:35:34;;;;;;;1.87;1.60;;;5.10;99.90;;;;;;5002508;28;20494;-65
2023/12/14 02:38:02;;;;;;;2.50;1.73;;;5.10;99.90;;;;;;5004841;28;20906;-66
2023/12/14 02:40:31;;;;;;;2.10;1.77;;;5.10;99.90;;;;;;5003431;28;20499;-66
2023/12/14 02:42:59;;;;;;;3.47;1.70;;;5.10;99.90;;;;;;5005481;28;20472;-65
2023/12/14 02:45:27;;;;;;;2.87;1.57;;;5.10;99.90;;;;;;4995723;28;20728;-65
2023/12/14 02:47:55;;;;;;;3.40;1.90;;;5.10;99.90;;;;;;5005263;28;20818;-65
2023/12/14 02:50:23;;;;;;;2.00;1.80;;;5.10;99.90;;;;;;5002275;28;20554;-63
2023/12/14 02:52:51;;;;;;;3.50;1.97;;;5.10;99.90;;;;;;5004942;28;20478;-65
2023/12/14 02:55:19;;;;;;;3.93;2.27;;;5.10;99.90;;;;;;5001200;28;20774;-66
2023/12/14 02:57:48;;;;;;;1.70;1.53;;;5.10;99.90;;;;;;5003739;28;20536;-65
2023/12/14 03:00:17;;;;;;;2.57;1.73;;;5.10;99.90;;;;;;5005700;28;20960;-65
2023/12/14 03:02:45;;;;;;;2.67;1.70;;;5.10;99.90;;;;;;5003940;28;20989;-65
2023/12/14 03:05:13;;;;;;;3.27;1.83;;;5.10;99.90;;;;;;4995523;28;20617;-66
2023/12/14 03:07:41;;;;;;;3.60;1.90;;;5.10;99.90;;;;;;5001148;28;20473;-66
2023/12/14 03:10:09;;;;;;;3.03;2.20;;;5.10;99.90;;;;;;5004984;28;20488;-66
2023/12/14 03:12:37;;;;;;;3.43;2.23;;;5.10;99.90;;;;;;5002041;28;24348;-64
2023/12/14 03:15:08;;;;;;;4.73;2.47;;;5.00;99.90;;;;;;5005775;28;20492;-66
2023/12/14 03:17:36;;;;;;;3.77;2.20;;;5.10;99.90;;;;;;5001602;28;20468;-66
2023/12/14 03:20:06;;;;;;;4.00;2.00;;;5.10;99.90;;;;;;5004805;28;20999;-65
2023/12/14 03:22:34;;;;;;;2.10;1.90;;;5.10;99.90;;;;;;5000755;28;20526;-65
2023/12/14 03:25:03;;;;;;;1.93;1.63;;;5.10;99.90;;;;;;5004391;28;20611;-66
2023/12/14 03:27:31;;;;;;;3.23;1.80;;;5.10;99.90;;;;;;5002513;28;20472;-66
2023/12/14 03:29:59;;;;;;;1.97;1.70;;;5.10;99.90;;;;;;5001510;28;20500;-66
2023/12/14 03:32:28;;;;;;;2.77;1.40;;;5.10;99.90;;;;;;5001319;28;20469;-65
2023/12/14 03:34:57;;;;;;;2.50;2.13;;;5.10;99.90;;;;;;5000211;28;20491;-63
2023/12/14 03:37:25;;;;;;;2.60;1.80;;;5.10;99.90;;;;;;5004968;28;20476;-64
2023/12/14 03:39:53;;;;;;;2.30;2.10;;;5.10;99.90;;;;;;5002460;28;20567;-65
2023/12/14 03:42:22;;;;;;;2.10;1.60;;;5.10;99.90;;;;;;5004062;28;21135;-66
2023/12/14 03:44:50;;;;;;;2.50;1.60;;;5.10;99.90;;;;;;5003006;28;20531;-66
2023/12/14 03:47:18;;;;;;;4.53;2.00;;;5.10;99.90;;;;;;5000740;28;20552;-65
2023/12/14 03:49:49;;;;;;;2.63;1.80;;;5.10;99.90;;;;;;5002541;28;20476;-65
2023/12/14 03:52:17;;;;;;;4.23;1.90;;;5.10;99.90;;;;;;5001880;28;20473;-64
2023/12/14 03:54:45;;;;;;;2.17;1.80;;;5.10;99.90;;;;;;5001824;28;20488;-65
2023/12/14 03:57:13;;;;;;;3.17;1.90;;;5.10;99.90;;;;;;5001666;28;20482;-66
2023/12/14 03:59:41;;;;;;;1.70;1.60;;;5.10;99.90;;;;;;5002209;28;20482;-66
2023/12/14 04:02:09;;;;;;;3.10;1.70;;;5.10;99.90;;;;;;5001683;28;20472;-65
2023/12/14 04:04:37;;;;;;;2.70;1.87;;;5.10;99.90;;;;;;5002131;28;21160;-66
2023/12/14 04:07:06;;;;;;;1.90;1.50;;;5.10;99.90;;;;;;5002977;28;20476;-65
2023/12/14 04:09:35;;;;;;;2.73;1.80;;;5.10;99.90;;;;;;4998595;28;20473;-66
2023/12/14 04:12:03;;;;;;;2.63;1.90;;;5.00;99.90;;;;;;5003466;28;20504;-65
2023/12/14 04:14:31;;;;;;;4.00;2.20;;;5.10;99.90;;;;;;5000044;28;20554;-65
2023/12/14 04:16:59;;;;;;;3.03;1.90;;;5.00;99.90;;;;;;5005340;28;20476;-65
2023/12/14 04:19:27;;;;;;;3.10;1.87;;;5.00;99.90;;;;;;4998384;28;20858;-66
2023/12/14 04:21:55;;;;;;;3.10;2.10;;;5.00;99.90;;;;;;4999048;28;20504;-66
2023/12/14 04:24:24;;;;;;;2.27;1.97;;;5.00;99.90;;;;;;4999324;28;20579;-65
2023/12/14 04:26:52;;;;;;;2.00;1.73;;;5.00;99.90;;;;;;5001247;28;20551;-65
2023/12/14 04:29:20;;;;;;;4.80;2.10;;;5.00;99.90;;;;;;4997318;28;21077;-66
2023/12/14 04:31:48;;;;;;;3.10;2.00;;;5.00;99.90;;;;;;4995353;28;20499;-64
2023/12/14 04:34:17;;;;;;;3.80;1.87;;;5.10;99.90;;;;;;5000246;28;20591;-66
2023/12/14 04:36:46;;;;;;;3.93;2.00;;;5.00;99.90;;;;;;5002691;28;20468;-66
2023/12/14 04:39:14;;;;;;;2.23;2.00;;;5.00;99.90;;;;;;4999627;28;20984;-66
2023/12/14 04:41:43;;;;;;;2.43;1.93;;;5.00;99.90;;;;;;5000340;28;20478;-65
2023/12/14 04:44:11;;;;;;;2.27;1.90;;;5.00;99.90;;;;;;4999388;28;20496;-66
2023/12/14 04:46:40;;;;;;;6.27;2.40;;;5.00;99.90;;;;;;5004572;28;20464;-65
2023/12/14 04:49:08;;;;;;;3.30;2.40;;;5.00;99.90;;;;;;4999437;28;20468;-65
2023/12/14 04:51:36;;;;;;;4.00;2.57;;;5.00;99.90;;;;;;5003166;28;20481;-65
2023/12/14 04:54:04;;;;;;;4.87;2.60;;;5.00;99.90;;;;;;4999130;28;20524;-66
2023/12/14 04:56:32;;;;;;;4.13;3.60;;;5.00;99.90;;;;;;5002014;28;20499;-66
2023/12/14 04:59:02;;;;;;;2.73;2.43;;;5.00;99.90;;;;;;5002869;28;20965;-66
2023/12/14 05:01:30;;;;;;;3.20;2.70;;;5.00;99.90;;;;;;4997968;28;20904;-66
2023/12/14 05:04:03;;;;;;;2.67;2.47;;;5.00;99.90;;;;;;4998344;28;20579;-66
2023/12/14 05:06:33;;;;;;;6.40;3.10;;;5.00;99.90;;;;;;4998384;28;21113;-65
2023/12/14 05:09:04;;;;;;;4.40;3.00;;;5.00;99.90;;;;;;5003638;28;20511;-66
2023/12/14 05:11:32;;;;;;;4.97;2.80;;;5.10;99.90;;;;;;5003629;28;20547;-65
2023/12/14 05:14:00;;;;;;;5.10;3.50;;;5.10;99.90;;;;;;5001584;28;20488;-65
2023/12/14 05:16:30;;;;;;;4.90;2.97;;;5.00;99.90;;;;;;5001026;28;20569;-66
2023/12/14 05:18:59;;;;;;;4.70;2.97;;;5.00;99.90;;;;;;5004158;28;20480;-66
2023/12/14 05:21:27;;;;;;;3.87;2.90;;;5.00;99.90;;;;;;5000964;28;23332;-66
2023/12/14 05:23:55;;;;;;;4.63;3.10;;;5.10;99.90;;;;;;4993645;28;20494;-65
2023/12/14 05:26:23;;;;;;;3.13;2.53;;;5.10;99.90;;;;;;5000959;28;20856;-66
2023/12/14 05:28:51;;;;;;;3.77;2.73;;;5.00;99.90;;;;;;5001365;28;21136;-64
2023/12/14 05:31:19;;;;;;;3.67;2.73;;;5.00;99.90;;;;;;4989848;28;20487;-66
2023/12/14 05:33:48;;;;;;;5.50;2.97;;;5.00;99.90;;;;;;4997953;28;20910;-63
2023/12/14 05:36:16;;;;;;;5.97;2.90;;;5.00;99.90;;;;;;4999993;28;20585;-65
2023/12/14 05:38:44;;;;;;;4.03;3.00;;;5.00;99.90;;;;;;5000223;28;20530;-65
2023/12/14 05:41:12;;;;;;;4.63;2.43;;;5.10;99.90;;;;;;4997446;28;21072;-65
2023/12/14 05:43:41;;;;;;;5.60;3.23;;;5.00;99.90;;;;;;4999334;28;20483;-65
2023/12/14 05:46:09;;;;;;;3.47;3.17;;;5.00;99.90;;;;;;5000528;28;20500;-65
2023/12/14 05:48:38;;;;;;;6.50;3.47;;;5.00;99.90;;;;;;4998677;28;20567;-65
2023/12/14 05:51:08;;;;;;;4.40;3.33;;;5.00;99.90;;;;;;4997220;28;20850;-66
2023/12/14 05:53:39;;;;;;;5.23;3.33;;;5.00;99.90;;;;;;5000072;28;20573;-65
2023/12/14 05:56:08;;;;;;;4.60;3.60;;;5.00;99.90;;;;;;4991789;28;20491;-65
2023/12/14 05:58:36;;;;;;;6.73;4.30;;;5.00;99.90;;;;;;5000095;28;20479;-66
2023/12/14 06:01:05;;;;;;;5.97;4.00;;;5.00;99.90;;;;;;4998957;28;20550;-64
2023/12/14 06:03:33;;;;;;;7.60;4.63;;;5.00;99.90;;;;;;4987809;28;20550;-65
2023/12/14 06:06:01;;;;;;;7.87;4.50;;;5.00;99.90;;;;;;5001385;28;20508;-64
2023/12/14 06:08:30;;;;;;;4.30;3.50;;;4.90;99.90;;;;;;4996865;28;20844;-63
2023/12/14 06:10:58;;;;;;;8.70;4.27;;;4.90;99.90;;;;;;5001565;28;20561;-65
2023/12/14 06:13:26;;;;;;;9.77;5.30;;;4.90;99.90;;;;;;4997811;28;20571;-64
2023/12/14 06:15:54;;;;;;;7.43;4.90;;;4.90;99.90;;;;;;5000772;28;20520;-65
2023/12/14 06:18:22;;;;;;;6.13;4.40;;;4.90;99.90;;;;;;5000690;28;21637;-65
2023/12/14 06:20:50;;;;;;;7.90;4.30;;;4.90;99.90;;;;;;5002892;28;20464;-65
2023/12/14 06:23:19;;;;;;;6.53;4.43;;;4.90;99.90;;;;;;4987110;28;20471;-65
2023/12/14 06:25:49;;;;;;;6.30;4.40;;;4.90;99.90;;;;;;4999131;28;20499;-65
2023/12/14 06:28:17;;;;;;;6.40;4.37;;;4.90;99.90;;;;;;4995875;28;20495;-66
2023/12/14 06:30:45;;;;;;;6.13;4.43;;;4.90;99.90;;;;;;4997987;28;20602;-65
2023/12/14 06:33:13;;;;;;;4.80;4.03;;;4.90;99.90;;;;;;4990588;28;20598;-66
2023/12/14 06:35:41;;;;;;;5.77;4.70;;;4.80;99.90;;;;;;5003582;28;20595;-66
2023/12/14 06:38:09;;;;;;;8.93;5.60;;;4.80;99.90;;;;;;5000259;28;20983;-66
2023/12/14 06:40:37;;;;;;;5.20;3.83;;;4.80;99.90;;;;;;5004866;28;20490;-66
2023/12/14 06:43:06;;;;;;;6.60;4.83;;;4.80;99.90;;;;;;4997540;28;20467;-65
2023/12/14 06:45:37;;;;;;;6.80;4.83;;;4.80;99.90;;;;;;5003791;28;20872;-66
2023/12/14 06:48:05;;;;;;;6.00;5.00;;;4.80;99.90;;;;;;5002991;28;20884;-64
2023/12/14 06:50:34;;;;;;;8.73;4.60;;;4.80;99.90;;;;;;5002722;28;20482;-65
2023/12/14 06:53:02;;;;;;;6.00;4.30;;;4.80;99.90;;;;;;4999638;28;20567;-66
2023/12/14 06:55:30;;;;;;;8.00;4.60;;;4.80;99.90;;;;;;5003401;28;20488;-65
2023/12/14 06:57:58;;;;;;;4.80;4.10;;;4.80;99.90;;;;;;4993722;28;20476;-66
2023/12/14 07:00:28;;;;;;;6.13;4.30;;;4.80;99.90;;;;;;4999719;28;20607;-66
2023/12/14 07:02:57;;;;;;;5.10;4.60;;;4.80;99.90;;;;;;5000383;28;20567;-65
2023/12/14 07:05:25;;;;;;;5.23;4.60;;;4.80;99.90;;;;;;5002031;28;20498;-65
2023/12/14 07:07:53;;;;;;;5.97;5.07;;;4.80;99.90;;;;;;5003828;28;20989;-65
2023/12/14 07:10:22;;;;;;;6.70;4.60;;;4.80;99.90;;;;;;4998294;28;20868;-66
2023/12/14 07:12:49;;;;;;;6.13;4.57;;;4.80;99.90;;;;;;5002230;28;20472;-65
2023/12/14 07:15:18;;;;;;;5.30;4.20;;;4.80;99.90;;;;;;4999649;28;20484;-65
2023/12/14 07:17:47;;;;;;;6.70;4.53;;;4.80;99.90;;;;;;5003077;28;20929;-66
2023/12/14 07:20:15;;;;;;;6.70;5.60;;;4.80;99.90;;;;;;5005342;28;20559;-66
2023/12/14 07:22:43;;;;;;;7.23;4.30;;;4.80;99.90;;;;;;5004014;28;20993;-66
2023/12/14 07:25:11;;;;;;;7.17;5.33;;;4.90;99.90;;;;;;5003059;28;20502;-66
2023/12/14 07:27:39;;;;;;;5.50;4.60;;;4.80;99.90;;;;;;5003862;28;20500;-65
2023/12/14 07:30:09;;;;;;;6.07;4.73;;;4.90;99.90;;;;;;5000157;28;20844;-64
2023/12/14 07:32:37;;;;;;;9.10;4.80;;;4.90;99.90;;;;;;4998774;28;20474;-65
2023/12/14 07:35:08;;;;;;;5.63;4.47;;;4.90;99.90;;;;;;5002718;28;20500;-66
2023/12/14 07:37:36;;;;;;;6.40;4.87;;;4.90;99.90;;;;;;5002745;28;20977;-65
2023/12/14 07:40:05;;;;;;;7.70;6.47;;;4.90;99.90;;;;;;5000685;28;20483;-65
2023/12/14 07:42:33;;;;;;;6.30;4.90;;;4.80;99.90;;;;;;5003288;28;20472;-66
2023/12/14 07:45:02;;;;;;;6.60;5.80;;;4.90;99.90;;;;;;5000554;28;20495;-66
2023/12/14 07:47:31;;;;;;;6.77;4.83;;;4.80;99.90;;;;;;5002796;28;20497;-65
2023/12/14 07:49:59;;;;;;;7.17;4.50;;;4.80;99.90;;;;;;5002654;28;20841;-66
2023/12/14 07:52:28;;;;;;;8.07;4.97;;;4.80;99.90;;;;;;4997829;28;20826;-66
2023/12/14 07:54:56;;;;;;;5.87;4.50;;;4.80;99.90;;;;;;4996606;28;20484;-66
2023/12/14 07:57:24;;;;;;;11.20;4.80;;;4.80;99.90;;;;;;5001921;28;20472;-65
2023/12/14 07:59:52;;;;;;;7.40;4.73;;;4.80;99.90;;;;;;4998954;28;20498;-66
2023/12/14 08:02:20;;;;;;;6.47;5.30;;;4.80;99.90;;;;;;4998068;28;20472;-66
2023/12/14 08:04:48;;;;;;;8.33;5.00;;;4.80;99.90;;;;;;5002423;28;20880;-66
2023/12/14 08:07:16;;;;;;;5.50;4.50;;;4.80;99.90;;;;;;5000957;28;20496;-66
2023/12/14 08:09:46;;;;;;;7.63;4.40;;;4.80;99.90;;;;;;5002436;28;20555;-66
2023/12/14 08:12:14;;;;;;;7.37;5.57;;;4.80;99.90;;;;;;5000665;28;20507;-64
2023/12/14 08:14:43;;;;;;;8.17;5.17;;;4.80;99.90;;;;;;4998881;28;20924;-63
2023/12/14 08:17:11;;;;;;;6.50;4.47;;;4.80;99.90;;;;;;5002103;28;20965;-65
2023/12/14 08:19:39;;;;;;;6.00;4.90;;;4.80;99.90;;;;;;4997684;28;20495;-65
2023/12/14 08:22:10;;;;;;;7.23;4.63;;;4.80;99.90;;;;;;4998404;28;20465;-65
2023/12/14 08:24:38;;;;;;;5.97;4.60;;;4.80;99.90;;;;;;4997008;28;20550;-65
2023/12/14 08:27:08;;;;;;;5.00;4.33;;;4.80;99.90;;;;;;5000540;28;20504;-65
2023/12/14 08:29:36;;;;;;;6.77;5.23;;;4.80;99.90;;;;;;4994907;28;21105;-65
2023/12/14 08:32:04;;;;;;;7.03;4.93;;;4.80;99.90;;;;;;5001241;28;20555;-65
2023/12/14 08:34:32;;;;;;;5.93;5.03;;;4.80;99.90;;;;;;5000630;28;20582;-66
2023/12/14 08:37:02;;;;;;;6.00;4.50;;;4.80;99.90;;;;;;5003301;28;20471;-65
2023/12/14 08:39:30;;;;;;;6.70;4.50;;;4.80;99.90;;;;;;5000014;28;20555;-65
2023/12/14 08:41:58;;;;;;;5.53;4.27;;;4.80;99.90;;;;;;5003057;28;20546;-66
2023/12/14 08:44:27;;;;;;;7.40;4.50;;;4.80;99.90;;;;;;5002871;28;20591;-66
2023/12/14 08:46:55;;;;;;;6.00;4.70;;;4.90;99.90;;;;;;5002762;28;20491;-66
2023/12/14 08:49:24;;;;;;;5.03;4.43;;;4.80;99.90;;;;;;5001995;28;20485;-64
2023/12/14 08:51:52;;;;;;;7.30;4.27;;;4.90;99.90;;;;;;5000167;28;20567;-66
2023/12/14 08:54:20;;;;;;;5.73;4.83;;;4.90;99.90;;;;;;4995932;28;20520;-65
2023/12/14 08:56:48;;;;;;;4.97;4.03;;;4.90;99.90;;;;;;4999453;28;20468;-63
2023/12/14 08:59:16;;;;;;;6.43;4.33;;;4.90;99.90;;;;;;5000769;28;20518;-64
2023/12/14 09:01:46;;;;;;;6.60;4.20;;;4.90;99.90;;;;;;4995652;28;20487;-65
2023/12/14 09:04:14;;;;;;;4.90;4.30;;;4.80;99.90;;;;;;5004245;28;20806;-65
2023/12/14 09:06:44;;;;;;;5.53;4.40;;;4.80;99.90;;;;;;5004907;28;20494;-65
2023/12/14 09:09:18;;;;;;;5.07;4.50;;;4.90;99.90;;;;;;5000569;28;20989;-65
2023/12/14 09:11:46;;;;;;;5.47;3.93;;;4.90;99.90;;;;;;4999032;28;20476;-65
2023/12/14 09:14:14;;;;;;;5.00;4.13;;;4.90;99.90;;;;;;5004624;28;20488;-65
2023/12/14 09:16:47;;;;;;;5.70;4.63;;;4.90;99.90;;;;;;5003143;28;20503;-65
2023/12/14 09:19:15;;;;;;;5.77;4.70;;;4.90;99.90;;;;;;5004530;28;21042;-66
2023/12/14 09:21:43;;;;;;;6.13;4.80;;;4.90;99.90;;;;;;5003494;28;20475;-66
2023/12/14 09:24:13;;;;;;;5.80;4.87;;;4.90;99.90;;;;;;5000000;28;20491;-66
2023/12/14 09:26:42;;;;;;;6.27;5.20;;;4.90;99.90;;;;;;5002433;28;20546;-65
2023/12/14 09:29:10;;;;;;;5.43;4.93;;;4.90;99.90;;;;;;5004031;28;20882;-65
2023/12/14 09:31:38;;;;;;;6.10;5.47;;;5.00;99.90;;;;;;5007207;28;20484;-65
2023/12/14 09:34:07;;;;;;;6.87;5.27;;;5.00;99.90;;;;;;5004286;28;21099;-65
2023/12/14 09:36:35;;;;;;;7.83;4.70;;;5.00;99.90;;;;;;5004755;28;20498;-65
2023/12/14 09:39:10;;;;;;;5.97;5.03;;;4.90;99.90;;;;;;5000538;28;20504;-63
2023/12/14 09:41:47;;;;;;;5.90;5.30;;;5.00;99.90;;;;;;5003405;28;20467;-66
2023/12/14 09:44:15;;;;;;;7.43;5.50;;;5.00;99.90;;;;;;5003751;28;20503;-66
2023/12/14 09:46:49;;;;;;;5.93;5.03;;;5.00;99.90;;;;;;5006268;28;20478;-66
2023/12/14 09:49:19;;;;;;;7.63;5.10;;;5.00;99.90;;;;;;5005096;28;20946;-64
2023/12/14 09:51:47;;;;;;;5.70;4.90;;;5.00;99.90;;;;;;5003430;28;20476;-65
2023/12/14 09:54:15;;;;;;;7.97;5.20;;;5.00;99.90;;;;;;5002874;28;20579;-64
2023/12/14 09:56:49;;;;;;;7.70;5.80;;;5.00;99.90;;;;;;5006431;28;20471;-64
2023/12/14 09:59:17;;;;;;;6.23;5.17;;;5.00;99.90;;;;;;5004208;28;20573;-65
2023/12/14 10:01:46;;;;;;;7.67;5.47;;;5.00;99.90;;;;;;4995880;28;20581;-65
2023/12/14 10:04:15;;;;;;;7.57;5.20;;;5.00;99.90;;;;;;5005147;28;20524;-64
2023/12/14 10:06:46;;;;;;;7.70;5.10;;;5.00;99.90;;;;;;5003087;28;20478;-65
2023/12/14 10:09:16;;;;;;;5.30;4.80;;;5.00;99.90;;;;;;5005847;28;20522;-65
2023/12/14 10:11:45;;;;;;;6.40;5.17;;;5.10;99.90;;;;;;5001117;28;20563;-65
2023/12/14 10:14:21;;;;;;;6.83;5.23;;;5.00;99.90;;;;;;5003089;28;20587;-65
2023/12/14 10:16:50;;;;;;;5.70;4.47;;;5.10;99.90;;;;;;5002372;28;21781;-65
2023/12/14 10:19:21;;;;;;;8.77;4.83;;;5.10;99.90;;;;;;5000601;28;21005;-64
2023/12/14 10:21:51;;;;;;;8.20;5.53;;;5.10;99.90;;;;;;5003067;28;20480;-65
2023/12/14 10:24:19;;;;;;;6.50;4.73;;;5.20;99.90;;;;;;5000364;28;20519;-65
2023/12/14 10:26:48;;;;;;;6.33;4.73;;;5.20;99.90;;;;;;4993062;28;20476;-65
2023/12/14 10:29:16;;;;;;;6.80;4.70;;;5.20;99.90;;;;;;5003307;28;20487;-65
2023/12/14 10:31:44;;;;;;;5.40;4.73;;;5.10;99.90;;;;;;5005430;28;20515;-64
2023/12/14 10:34:15;;;;;;;5.57;4.87;;;5.20;99.90;;;;;;5002606;28;20498;-65
2023/12/14 10:36:46;;;;;;;4.93;4.43;;;5.20;99.90;;;;;;5000372;28;20472;-65
2023/12/14 10:39:16;;;;;;;5.33;4.80;;;5.20;99.90;;;;;;4997362;28;20585;-65
2023/12/14 10:41:48;;;;;;;6.03;4.53;;;5.10;99.90;;;;;;4999466;28;20509;-65
2023/12/14 10:44:27;;;;;;;4.80;4.30;;;5.10;99.90;;;;;;5001364;28;20484;-65
2023/12/14 10:47:19;;;;;;;6.00;4.67;;;5.20;99.90;;;;;;5002912;28;20467;-65
2023/12/14 10:49:50;;;;;;;5.30;4.47;;;5.20;99.90;;;;;;5007508;28;20769;-64
2023/12/14 10:52:20;;;;;;;5.70;4.53;;;5.20;99.90;;;;;;5003740;28;20476;-65
2023/12/14 10:54:53;;;;;;;5.60;4.80;;;5.20;99.90;;;;;;4999473;28;20500;-64
2023/12/14 10:57:22;;;;;;;6.87;4.67;;;5.20;99.90;;;;;;4993511;28;20460;-65
2023/12/14 10:59:50;;;;;;;5.23;4.73;;;5.20;99.90;;;;;;5004333;28;21054;-64
2023/12/14 11:02:18;;;;;;;5.30;4.13;;;5.30;99.90;;;;;;4997144;28;20480;-65
2023/12/14 11:04:58;;;;;;;6.57;4.40;;;5.30;99.90;;;;;;4999042;28;20522;-65
2023/12/14 11:07:46;;;;;;;6.90;5.37;;;5.30;99.90;;;;;;5001978;28;20506;-65
2023/12/14 11:10:23;;;;;;;7.07;4.60;;;5.30;99.90;;;;;;5004167;28;21028;-65
2023/12/14 11:13:01;;;;;;;5.63;4.83;;;5.30;99.90;;;;;;5002874;28;21105;-63
2023/12/14 11:15:33;;;;;;;5.67;4.67;;;5.30;99.90;;;;;;4994786;28;21012;-62
2023/12/14 11:18:24;;;;;;;5.77;5.10;;;5.40;99.90;;;;;;5002444;28;20882;-65
2023/12/14 11:20:56;;;;;;;5.33;4.50;;;5.30;99.90;;;;;;5000224;28;20547;-65
2023/12/14 11:23:38;;;;;;;7.10;5.30;;;5.30;99.90;;;;;;5004062;28;20572;-64
2023/12/14 11:26:10;;;;;;;5.57;4.70;;;5.30;99.90;;;;;;5004280;28;20484;-65
2023/12/14 11:28:41;;;;;;;6.50;5.27;;;5.30;99.90;;;;;;5002007;28;20507;-65
2023/12/14 11:31:12;;;;;;;6.00;4.97;;;5.30;99.90;;;;;;5000453;28;20555;-65
2023/12/14 11:33:40;;;;;;;5.80;5.07;;;5.30;99.90;;;;;;5000887;28;20557;-64
2023/12/14 11:36:13;;;;;;;5.13;4.17;;;5.40;99.90;;;;;;5003420;28;20500;-65
2023/12/14 11:38:42;;;;;;;7.20;5.03;;;5.40;99.90;;;;;;5007096;28;20564;-64
2023/12/14 11:41:12;;;;;;;6.77;5.20;;;5.40;99.90;;;;;;5005353;28;20558;-65
2023/12/14 11:43:41;;;;;;;5.80;4.70;;;5.40;99.90;;;;;;5002836;28;20514;-64
2023/12/14 11:46:10;;;;;;;8.73;5.77;;;5.40;99.90;;;;;;5006084;28;20548;-65
2023/12/14 11:48:38;;;;;;;7.83;5.20;;;5.40;99.90;;;;;;5007227;28;20970;-64
2023/12/14 11:51:06;;;;;;;8.67;5.90;;;5.40;99.90;;;;;;5004587;28;20468;-64
2023/12/14 11:53:38;;;;;;;5.80;5.20;;;5.40;99.90;;;;;;5001023;28;20947;-65
2023/12/14 11:56:07;;;;;;;6.27;5.17;;;5.50;99.90;;;;;;5005445;28;20499;-63
2023/12/14 11:58:37;;;;;;;9.20;5.80;;;5.50;99.90;;;;;;5001480;28;20559;-65
2023/12/14 12:01:16;;;;;;;6.83;5.30;;;5.50;99.90;;;;;;5003963;28;20468;-65
2023/12/14 12:03:45;;;;;;;7.33;5.90;;;5.50;99.90;;;;;;5002037;28;20480;-65
2023/12/14 12:06:22;;;;;;;6.20;5.60;;;5.50;99.90;;;;;;5003469;28;20579;-65
2023/12/14 12:08:50;;;;;;;6.23;5.47;;;5.50;99.90;;;;;;5006539;28;21011;-65
2023/12/14 12:11:19;;;;;;;5.80;4.17;;;5.50;99.90;;;;;;5001668;28;20532;-64
2023/12/14 12:13:53;;;;;;;6.80;5.30;;;5.50;99.90;;;;;;5003053;28;20506;-65
2023/12/14 12:16:22;;;;;;;9.57;5.20;;;5.50;99.90;;;;;;5002172;28;20499;-65
2023/12/14 12:18:50;;;;;;;8.73;5.70;;;5.50;99.90;;;;;;5003247;28;20476;-63
2023/12/14 12:21:19;;;;;;;6.23;5.30;;;5.50;99.90;;;;;;5000343;28;20570;-63
2023/12/14 12:23:47;;;;;;;6.20;5.23;;;5.50;99.90;;;;;;5002014;28;20496;-64
2023/12/14 12:26:15;;;;;;;8.87;5.57;;;5.50;99.90;;;;;;4998637;28;20554;-64
2023/12/14 12:28:43;;;;;;;6.60;5.20;;;5.50;99.90;;;;;;5002179;28;20492;-65
2023/12/14 12:31:13;;;;;;;7.87;6.43;;;5.50;99.90;;;;;;4991929;28;20469;-65
2023/12/14 12:33:41;;;;;;;6.97;5.73;;;5.50;99.90;;;;;;4998949;28;20499;-65
2023/12/14 12:36:10;;;;;;;5.80;5.20;;;5.50;99.90;;;;;;4999680;28;20495;-65
2023/12/14 12:38:40;;;;;;;8.00;5.50;;;5.50;99.90;;;;;;5001319;28;20496;-65
2023/12/14 12:41:08;;;;;;;7.60;5.87;;;5.50;99.90;;;;;;4992542;28;20468;-65
2023/12/14 12:43:36;;;;;;;7.00;5.30;;;5.50;99.90;;;;;;4991637;28;20480;-64
2023/12/14 12:46:05;;;;;;;6.77;5.23;;;5.50;99.90;;;;;;4999601;28;20504;-66
2023/12/14 12:48:35;;;;;;;7.67;5.20;;;5.40;99.90;;;;;;5001752;28;20506;-66
2023/12/14 12:51:04;;;;;;;6.50;5.20;;;5.40;99.90;;;;;;5000069;28;20853;-64
2023/12/14 12:53:33;;;;;;;7.90;5.10;;;5.40;99.90;;;;;;5002244;28;20487;-65
2023/12/14 12:56:01;;;;;;;8.70;5.63;;;5.40;99.90;;;;;;5000343;28;20500;-64
2023/12/14 12:58:30;;;;;;;9.30;5.83;;;5.40;99.90;;;;;;5001306;28;20968;-64
2023/12/14 13:00:58;;;;;;;7.67;5.87;;;5.40;99.90;;;;;;4996500;28;20905;-65
2023/12/14 13:03:26;;;;;;;8.97;5.60;;;5.40;99.90;;;;;;4998313;28;20468;-64
2023/12/14 13:05:56;;;;;;;5.90;5.30;;;5.40;99.90;;;;;;4990735;28;21077;-65
2023/12/14 13:08:24;;;;;;;7.93;5.47;;;5.40;99.90;;;;;;4980509;28;21072;-65